LIPQ/TRS METAR and TAF weather

Enter ICAO airport designator
Station Type Date Time Source
LIPQ METAR 2021/04/18 02:20 UTC NOAA

LIPQ 180220Z AUTO 02004KT 9999 BKN094/// 09/01 Q1015


Station Type Date Time Source
LIPQ Decoded METAR 2021/04/18 02:20 UTC NOAA

Ronchi Dei Legionari, Italy (LIPQ) 45-49N 013-29E 12M
Apr 17, 2021 - 10:20 PM EDT / 2021.04.18 0220 UTC
Wind: from the NNE (020 degrees) at 5 MPH (4 KT):0
Visibility: greater than 7 mile(s):0
Sky conditions: mostly cloudy
Temperature: 48 F (9 C)
Dew Point: 33 F (1 C)
Relative Humidity: 57%
Pressure (altimeter): 29.97 in. Hg (1015 hPa)
ob: LIPQ 180220Z AUTO 02004KT 9999 BKN094/// 09/01 Q1015
cycle: 2

Station Type Date Time Source
LIPQ TAF 2021/04/17 18:21 UTC NOAA

TAF LIPQ 171700Z 1718/1818 09012KT 9999 SCT050
TEMPO 1812/1815 RA

Example: see airport list